Kansas City, Missouri
Traffic Map
Current Weather Conditions
Kansas City, Missouri
Overcast
Overcast
23°
Feels Like: 12°
Wind Chill: 12° Ceiling: 6000
Heat Index: 23° Visibility: 10mi
Dew Point: Wind: 10mph
Humidity: 40% Direction: 90° (E)
Pressure: 30.31in Gusts: 0mph
Raw Report DataKMKC 140154Z 09009KT 10SM OVC060 M05/M17 A3031 RMK AO2 SLP273 T10501167
Traffic Incident Summary
Active as of:
Severity:
Category:
InformationThere was an issue retrieving the traffic information for this location. Please try a different location or try again shortly.
Advertisements
Track Severe Weather on mobile